Time;durP1;ratioP1;P1;durP2;ratioP2;P2;SDS_P1;SDS_P2;PMS_P1;PMS_P2;Temp;Humidity;BMP_temperature;BMP_pressure;BME280_temperature;BME280_humidity;BME280_pressure;Samples;Min_cycle;Max_cycle;Signal;HPM_P1;HPM_P2
2020/12/26 00:02:18;;;;;;;0.38;0.30;;;0.20;99.90;;;;;;4970756;28;20027;-78
2020/12/26 00:04:44;;;;;;;0.60;0.40;;;0.20;99.90;;;;;;4972610;28;20042;-78
2020/12/26 00:07:10;;;;;;;0.43;0.43;;;0.20;99.90;;;;;;4954621;28;20089;-77
2020/12/26 00:09:35;;;;;;;0.30;0.30;;;0.20;99.90;;;;;;4970701;28;20062;-78
2020/12/26 00:12:01;;;;;;;0.40;0.40;;;0.20;99.90;;;;;;4967871;28;20027;-78
2020/12/26 00:14:27;;;;;;;0.52;0.52;;;0.20;99.90;;;;;;4972241;28;20039;-78
2020/12/26 00:16:58;;;;;;;0.40;0.40;;;0.20;99.90;;;;;;4953778;28;20023;-78
2020/12/26 00:19:24;;;;;;;0.40;0.40;;;0.20;99.90;;;;;;4973892;28;20389;-78
2020/12/26 00:21:51;;;;;;;0.50;0.40;;;0.20;99.90;;;;;;4976268;28;20062;-77
2020/12/26 00:24:17;;;;;;;0.73;0.60;;;0.20;99.90;;;;;;4975864;28;20042;-78
2020/12/26 00:26:43;;;;;;;0.93;0.45;;;0.20;99.90;;;;;;4975219;28;20167;-79
2020/12/26 00:29:09;;;;;;;1.40;0.47;;;0.20;99.90;;;;;;4974272;28;20063;-78
2020/12/26 00:31:35;;;;;;;1.08;0.60;;;0.20;99.90;;;;;;4975628;28;20111;-78
2020/12/26 00:34:01;;;;;;;0.63;0.50;;;0.20;99.90;;;;;;4975848;28;20138;-78
2020/12/26 00:36:27;;;;;;;0.50;0.50;;;0.20;99.90;;;;;;4969339;28;20090;-78
2020/12/26 00:38:53;;;;;;;0.50;0.50;;;0.20;99.90;;;;;;4975337;28;20054;-79
2020/12/26 00:41:19;;;;;;;0.98;0.50;;;0.20;99.90;;;;;;4977138;28;20035;-78
2020/12/26 00:43:44;;;;;;;1.83;0.50;;;0.20;99.90;;;;;;4976285;28;20031;-78
2020/12/26 00:46:11;;;;;;;0.40;0.40;;;0.20;99.90;;;;;;4976052;28;20042;-78
2020/12/26 00:48:37;;;;;;;0.60;0.60;;;0.20;99.90;;;;;;4974881;28;20027;-78
2020/12/26 00:51:03;;;;;;;3.85;0.68;;;0.20;99.90;;;;;;4976284;28;20026;-79
2020/12/26 00:53:31;;;;;;;1.30;0.50;;;0.20;99.90;;;;;;4976250;28;20123;-78
2020/12/26 00:55:57;;;;;;;0.55;0.45;;;0.20;99.90;;;;;;4976919;28;20066;-78
2020/12/26 00:58:23;;;;;;;0.30;0.28;;;0.10;99.90;;;;;;4957872;28;20039;-78
2020/12/26 01:00:48;;;;;;;1.55;0.40;;;0.20;99.90;;;;;;4973452;28;20125;-78
2020/12/26 01:03:43;;;;;;;0.77;0.60;;;0.10;99.90;;;;;;4957089;28;20043;-79
2020/12/26 01:06:13;;;;;;;0.70;0.70;;;0.10;99.90;;;;;;4961446;28;20039;-78
2020/12/26 01:08:40;;;;;;;1.10;0.60;;;0.10;99.90;;;;;;4974339;28;20058;-79
2020/12/26 01:11:05;;;;;;;1.15;0.65;;;0.10;99.90;;;;;;4977413;28;20512;-78
2020/12/26 01:13:31;;;;;;;1.58;0.70;;;0.10;99.90;;;;;;4960053;28;20038;-79
2020/12/26 01:15:57;;;;;;;1.08;0.68;;;0.10;99.90;;;;;;4976106;28;20031;-78
2020/12/26 01:18:22;;;;;;;0.93;0.50;;;0.10;99.90;;;;;;4973284;28;20038;-79
2020/12/26 01:20:48;;;;;;;0.60;0.60;;;0.10;99.90;;;;;;4976593;28;20035;-78
2020/12/26 01:23:14;;;;;;;0.50;0.47;;;0.10;99.90;;;;;;4956616;29;20437;-79
2020/12/26 01:25:39;;;;;;;1.45;0.85;;;0.10;99.90;;;;;;4957953;28;20062;-78
2020/12/26 01:28:05;;;;;;;1.92;0.70;;;0.10;99.90;;;;;;4974241;28;20488;-78
2020/12/26 01:30:31;;;;;;;1.40;0.90;;;0.20;99.90;;;;;;4974809;28;20065;-79
2020/12/26 01:32:56;;;;;;;0.80;0.70;;;0.20;99.90;;;;;;4976659;28;20082;-78
2020/12/26 01:35:22;;;;;;;1.23;0.68;;;0.20;99.90;;;;;;4976120;28;20034;-78
2020/12/26 01:37:48;;;;;;;1.10;0.60;;;0.10;99.90;;;;;;4973464;28;20101;-79
2020/12/26 01:40:14;;;;;;;1.00;0.80;;;0.10;99.90;;;;;;4970725;28;20038;-78
2020/12/26 01:42:39;;;;;;;1.33;0.90;;;0.00;99.90;;;;;;4975698;28;20045;-77
2020/12/26 01:45:05;;;;;;;0.93;0.80;;;0.00;99.90;;;;;;4974387;28;20125;-78
2020/12/26 01:47:31;;;;;;;2.45;1.13;;;0.00;99.90;;;;;;4971085;28;20089;-77
2020/12/26 01:50:00;;;;;;;1.55;0.80;;;-0.10;99.90;;;;;;4969607;28;20032;-77
2020/12/26 01:52:25;;;;;;;1.42;0.70;;;-0.10;99.90;;;;;;4973898;28;20035;-77
2020/12/26 01:54:53;;;;;;;0.82;0.77;;;-0.10;99.90;;;;;;4973890;28;20018;-78
2020/12/26 01:57:23;;;;;;;1.33;0.80;;;-0.10;99.90;;;;;;4970820;28;20118;-77
2020/12/26 01:59:49;;;;;;;1.13;0.77;;;-0.10;99.90;;;;;;4967289;28;20058;-78
2020/12/26 02:02:15;;;;;;;0.45;0.45;;;-0.20;99.90;;;;;;4950719;28;20189;-77
2020/12/26 02:04:40;;;;;;;0.98;0.80;;;-0.20;99.90;;;;;;4971624;28;20065;-77
2020/12/26 02:07:06;;;;;;;0.80;0.75;;;-0.20;99.90;;;;;;4970673;28;20034;-78
2020/12/26 02:09:33;;;;;;;1.00;0.80;;;-0.20;99.90;;;;;;4969477;28;20066;-77
2020/12/26 02:11:59;;;;;;;1.00;0.90;;;-0.20;99.90;;;;;;4972617;28;20503;-79
2020/12/26 02:14:25;;;;;;;1.05;0.75;;;-0.20;99.90;;;;;;4974203;28;20113;-78
2020/12/26 02:16:52;;;;;;;1.10;0.80;;;-0.20;99.90;;;;;;4970586;28;20043;-77
2020/12/26 02:19:20;;;;;;;1.92;0.88;;;-0.20;99.90;;;;;;4969193;28;20030;-77
2020/12/26 02:21:46;;;;;;;1.27;0.90;;;-0.20;99.90;;;;;;4956220;28;20062;-79
2020/12/26 02:24:12;;;;;;;1.75;1.10;;;-0.30;99.90;;;;;;4973388;28;20034;-79
2020/12/26 02:26:39;;;;;;;1.10;0.95;;;-0.40;99.90;;;;;;4971676;28;20046;-79
2020/12/26 02:29:06;;;;;;;1.23;0.80;;;-0.40;99.90;;;;;;4971268;28;20445;-78
2020/12/26 02:31:32;;;;;;;2.67;1.00;;;-0.40;99.90;;;;;;4973076;28;20042;-77
2020/12/26 02:33:58;;;;;;;1.48;0.85;;;-0.40;99.90;;;;;;4972904;28;20113;-78
2020/12/26 02:36:24;;;;;;;1.25;1.15;;;-0.50;99.90;;;;;;4972208;28;20317;-79
2020/12/26 02:38:49;;;;;;;1.40;0.95;;;-0.60;99.90;;;;;;4968326;28;20035;-78
2020/12/26 02:41:15;;;;;;;2.25;0.98;;;-0.60;99.90;;;;;;4970589;28;20039;-79
2020/12/26 02:43:41;;;;;;;2.30;1.45;;;-0.70;99.90;;;;;;4955944;28;20026;-78
2020/12/26 02:46:07;;;;;;;2.28;1.33;;;-0.70;99.90;;;;;;4953036;28;20401;-78
2020/12/26 02:48:33;;;;;;;1.63;1.20;;;-0.80;99.90;;;;;;4971635;28;20039;-78
2020/12/26 02:50:59;;;;;;;1.55;1.20;;;-0.80;99.90;;;;;;4972053;28;20114;-78
2020/12/26 02:53:25;;;;;;;1.83;1.30;;;-0.80;99.90;;;;;;4971348;28;20122;-79
2020/12/26 02:55:50;;;;;;;1.85;1.30;;;-0.80;99.90;;;;;;4972314;28;20039;-78
2020/12/26 02:58:17;;;;;;;3.28;1.50;;;-0.90;99.90;;;;;;4937518;28;20027;-78
2020/12/26 03:00:43;;;;;;;3.88;1.20;;;-0.90;99.90;;;;;;4968605;28;20037;-78
2020/12/26 03:03:09;;;;;;;2.22;1.30;;;-1.00;99.90;;;;;;4971170;28;20118;-78
2020/12/26 03:05:34;;;;;;;1.95;1.10;;;-1.00;99.90;;;;;;4970472;28;20058;-78
2020/12/26 03:08:00;;;;;;;3.17;1.67;;;-1.00;99.90;;;;;;4971673;28;20073;-78
2020/12/26 03:10:26;;;;;;;4.95;1.58;;;-1.10;99.90;;;;;;4972788;28;20390;-78
2020/12/26 03:12:52;;;;;;;4.03;1.60;;;-1.10;99.90;;;;;;4955618;28;20039;-78
2020/12/26 03:15:17;;;;;;;1.55;1.30;;;-1.10;99.90;;;;;;4972338;28;20552;-78
2020/12/26 03:17:43;;;;;;;1.50;1.00;;;-1.10;99.90;;;;;;4952804;28;20560;-77
2020/12/26 03:20:09;;;;;;;2.08;1.30;;;-1.20;99.90;;;;;;4938736;28;20531;-78
2020/12/26 03:22:35;;;;;;;2.42;1.40;;;-1.20;99.90;;;;;;4971234;28;20045;-78
2020/12/26 03:25:01;;;;;;;4.07;1.73;;;-1.10;99.90;;;;;;4955641;28;20046;-79
2020/12/26 03:27:27;;;;;;;2.25;1.67;;;-1.10;99.90;;;;;;4970978;28;20472;-78
2020/12/26 03:29:53;;;;;;;1.95;1.20;;;-1.20;99.90;;;;;;4970099;28;20101;-78
2020/12/26 03:32:20;;;;;;;4.75;1.52;;;-1.30;99.90;;;;;;4973632;28;20026;-79
2020/12/26 03:34:46;;;;;;;2.40;1.75;;;-1.30;99.90;;;;;;4975404;28;20034;-78
2020/12/26 03:37:11;;;;;;;4.45;1.98;;;-1.40;99.90;;;;;;4950645;29;20042;-79
2020/12/26 03:39:37;;;;;;;3.50;1.88;;;-1.40;99.90;;;;;;4973469;28;20050;-79
2020/12/26 03:42:11;;;;;;;3.67;1.80;;;-1.40;99.90;;;;;;4953375;29;20031;-79
2020/12/26 03:44:38;;;;;;;3.45;1.98;;;-1.50;99.90;;;;;;4960652;28;20023;-79
2020/12/26 03:47:08;;;;;;;2.45;2.05;;;-1.50;99.90;;;;;;4970168;28;20035;-79
2020/12/26 03:49:34;;;;;;;4.07;1.67;;;-1.40;99.90;;;;;;4970493;28;20127;-79
2020/12/26 03:52:00;;;;;;;3.15;1.60;;;-1.50;99.90;;;;;;4962346;28;20054;-79
2020/12/26 03:54:26;;;;;;;2.38;1.42;;;-1.60;99.90;;;;;;4973845;28;20073;-79
2020/12/26 03:56:52;;;;;;;2.70;1.77;;;-1.60;99.90;;;;;;4972520;28;20121;-78
2020/12/26 03:59:18;;;;;;;2.95;1.80;;;-1.60;99.90;;;;;;4969892;28;20496;-78
2020/12/26 04:01:44;;;;;;;2.45;1.90;;;-1.60;99.90;;;;;;4968774;28;20038;-78
2020/12/26 04:04:10;;;;;;;2.50;1.60;;;-1.70;99.90;;;;;;4971709;28;20401;-78
2020/12/26 04:06:36;;;;;;;2.70;1.63;;;-1.70;99.90;;;;;;4971730;28;20039;-78
2020/12/26 04:09:02;;;;;;;3.03;2.00;;;-1.70;99.90;;;;;;4970747;28;20031;-78
2020/12/26 04:11:28;;;;;;;2.83;1.77;;;-1.80;99.90;;;;;;4972110;28;20038;-79
2020/12/26 04:13:54;;;;;;;2.75;1.58;;;-1.80;99.90;;;;;;4973430;28;20493;-78
2020/12/26 04:16:19;;;;;;;4.57;2.10;;;-1.80;99.90;;;;;;4972519;28;20031;-78
2020/12/26 04:18:45;;;;;;;4.03;1.80;;;-1.80;99.90;;;;;;4970302;28;20054;-78
2020/12/26 04:21:11;;;;;;;3.85;1.65;;;-1.80;99.90;;;;;;4972420;28;20073;-78
2020/12/26 04:23:37;;;;;;;6.20;1.70;;;-1.90;99.90;;;;;;4971732;28;20027;-79
2020/12/26 04:26:07;;;;;;;6.15;1.80;;;-1.90;99.90;;;;;;4954213;28;20042;-78
2020/12/26 04:28:33;;;;;;;2.97;1.92;;;-1.90;99.90;;;;;;4985028;28;20039;-79
2020/12/26 04:30:58;;;;;;;5.07;1.98;;;-1.90;99.90;;;;;;4972614;28;20030;-78
2020/12/26 04:33:24;;;;;;;2.80;1.63;;;-1.90;99.90;;;;;;4955723;28;20727;-78
2020/12/26 04:35:50;;;;;;;4.50;2.05;;;-1.90;99.90;;;;;;4972290;28;20039;-78
2020/12/26 04:38:15;;;;;;;2.85;2.28;;;-1.90;99.90;;;;;;4970006;28;20321;-78
2020/12/26 04:40:42;;;;;;;3.80;2.50;;;-1.60;99.90;;;;;;4972019;28;20027;-78
2020/12/26 04:43:09;;;;;;;4.70;2.63;;;-1.30;99.90;;;;;;4972276;28;20030;-77
2020/12/26 04:45:35;;;;;;;5.80;2.67;;;-1.10;99.90;;;;;;4971097;28;20154;-77
2020/12/26 04:48:05;;;;;;;7.65;3.05;;;-1.10;99.90;;;;;;4970509;28;20110;-77
2020/12/26 04:50:34;;;;;;;4.63;2.63;;;-1.10;99.90;;;;;;4972139;28;20504;-78
2020/12/26 04:53:04;;;;;;;5.18;2.33;;;-1.20;99.90;;;;;;4972951;28;20030;-78
2020/12/26 04:55:36;;;;;;;5.65;2.80;;;-1.30;99.90;;;;;;4972601;28;20038;-77
2020/12/26 04:58:09;;;;;;;5.50;2.40;;;-1.40;99.90;;;;;;4952946;28;20035;-77
2020/12/26 05:00:36;;;;;;;2.80;1.67;;;-1.50;99.90;;;;;;4951145;28;20126;-78
2020/12/26 05:03:07;;;;;;;3.92;2.45;;;-1.60;99.90;;;;;;4967179;28;20490;-78
2020/12/26 05:05:44;;;;;;;4.18;2.25;;;-1.70;99.90;;;;;;4941591;28;20050;-77
2020/12/26 05:08:12;;;;;;;3.50;2.30;;;-1.80;99.90;;;;;;4972489;28;20050;-78
2020/12/26 05:10:39;;;;;;;3.75;2.20;;;-1.90;99.90;;;;;;4974414;28;20172;-77
2020/12/26 05:13:08;;;;;;;4.38;2.38;;;-2.00;99.90;;;;;;4974833;28;20035;-78
2020/12/26 05:15:34;;;;;;;6.47;2.53;;;-2.00;99.90;;;;;;4958851;28;20552;-78
2020/12/26 05:18:01;;;;;;;5.47;2.92;;;-2.00;99.90;;;;;;4973300;28;20027;-78
2020/12/26 05:20:27;;;;;;;3.55;2.17;;;-2.10;99.90;;;;;;4974819;28;20043;-77
2020/12/26 05:23:11;;;;;;;8.48;2.28;;;-2.10;99.90;;;;;;4974770;28;20094;-76
2020/12/26 05:25:50;;;;;;;5.35;2.28;;;-2.20;99.90;;;;;;4973090;28;20031;-77
2020/12/26 05:28:21;;;;;;;4.43;2.13;;;-2.20;99.90;;;;;;4971389;28;20539;-77
2020/12/26 05:30:49;;;;;;;3.90;2.67;;;-2.20;99.90;;;;;;4962754;28;20065;-77
2020/12/26 05:33:16;;;;;;;3.97;2.28;;;-2.20;99.90;;;;;;4973830;28;20045;-77
2020/12/26 05:35:48;;;;;;;4.68;2.70;;;-2.20;99.90;;;;;;4965559;28;20042;-77
2020/12/26 05:40:48;;;;;;;3.78;2.65;;;-2.20;99.90;;;;;;4944692;28;20118;-76
2020/12/26 05:43:18;;;;;;;5.22;2.30;;;-2.30;99.90;;;;;;4948913;29;20027;-75
2020/12/26 05:45:45;;;;;;;2.90;1.98;;;-2.30;99.90;;;;;;4954401;28;20046;-75
2020/12/26 05:48:17;;;;;;;4.85;2.70;;;-2.30;99.90;;;;;;4952230;29;20031;-75
2020/12/26 05:50:43;;;;;;;5.45;2.50;;;-2.40;99.90;;;;;;4933029;29;20040;-75
2020/12/26 05:53:12;;;;;;;4.85;2.50;;;-2.50;99.90;;;;;;4924017;29;20490;-75
2020/12/26 05:55:46;;;;;;;3.67;2.50;;;-2.40;99.90;;;;;;4928338;29;20036;-75
2020/12/26 05:58:13;;;;;;;3.30;2.20;;;-2.40;99.90;;;;;;4916878;29;20039;-75
2020/12/26 06:00:41;;;;;;;5.90;3.05;;;-2.50;99.90;;;;;;4930983;29;20032;-75
2020/12/26 06:03:28;;;;;;;5.50;2.75;;;-2.50;99.90;;;;;;4924037;29;20387;-74
2020/12/26 06:05:55;;;;;;;6.88;2.50;;;-2.50;99.90;;;;;;4934952;29;20038;-75
2020/12/26 06:08:23;;;;;;;5.82;2.58;;;-2.50;99.90;;;;;;4932586;29;20067;-74
2020/12/26 06:10:55;;;;;;;6.60;2.65;;;-2.50;99.90;;;;;;4932830;29;20759;-75
2020/12/26 06:13:23;;;;;;;5.28;2.88;;;-2.50;99.90;;;;;;4932519;29;20051;-74
2020/12/26 06:15:53;;;;;;;4.70;2.45;;;-2.50;99.90;;;;;;4933653;29;20046;-74
2020/12/26 06:18:20;;;;;;;5.00;2.15;;;-2.50;99.90;;;;;;4933774;29;20111;-75
2020/12/26 06:20:47;;;;;;;6.75;2.85;;;-2.50;99.90;;;;;;4930742;29;20031;-75
2020/12/26 06:23:20;;;;;;;6.40;2.63;;;-2.40;99.90;;;;;;4932172;29;20419;-74
2020/12/26 06:25:47;;;;;;;4.85;2.53;;;-2.50;99.90;;;;;;4933683;29;20529;-75
2020/12/26 06:28:30;;;;;;;4.55;2.70;;;-2.50;99.90;;;;;;4933668;29;20032;-75
2020/12/26 06:31:00;;;;;;;3.58;1.92;;;-2.50;99.90;;;;;;4928487;29;20095;-75
2020/12/26 06:33:29;;;;;;;3.90;2.80;;;-2.50;99.90;;;;;;4916562;29;20074;-75
2020/12/26 06:35:57;;;;;;;4.32;2.15;;;-2.50;99.90;;;;;;4934035;29;20040;-75
2020/12/26 06:38:26;;;;;;;3.90;2.40;;;-2.50;99.90;;;;;;4933455;29;20035;-74
2020/12/26 06:40:59;;;;;;;4.95;2.95;;;-2.50;99.90;;;;;;4932208;29;20035;-75
2020/12/26 06:43:53;;;;;;;6.07;2.60;;;-2.50;99.90;;;;;;4918798;29;20044;-75
2020/12/26 06:46:22;;;;;;;6.40;3.50;;;-2.50;99.90;;;;;;4931036;29;20059;-75
2020/12/26 06:48:52;;;;;;;5.68;3.22;;;-2.40;99.90;;;;;;4932025;29;20067;-74
2020/12/26 06:51:36;;;;;;;5.22;3.15;;;-2.40;99.90;;;;;;4929763;29;20027;-75
2020/12/26 06:54:04;;;;;;;6.60;3.53;;;-2.50;99.90;;;;;;4927750;29;20094;-74
2020/12/26 06:56:33;;;;;;;6.90;4.25;;;-2.50;99.90;;;;;;4932749;29;20067;-74
2020/12/26 06:59:06;;;;;;;9.02;4.07;;;-2.50;99.90;;;;;;4933105;29;20035;-74
2020/12/26 07:01:33;;;;;;;7.68;4.88;;;-2.50;99.90;;;;;;4931604;29;20031;-75
2020/12/26 07:04:10;;;;;;;13.63;6.97;;;-2.50;99.90;;;;;;4932889;29;20036;-75
2020/12/26 07:06:37;;;;;;;10.80;4.93;;;-2.40;99.90;;;;;;4933306;29;20115;-75
2020/12/26 07:09:04;;;;;;;7.30;4.00;;;-2.40;99.90;;;;;;4931383;29;20062;-75
2020/12/26 07:11:30;;;;;;;9.02;3.47;;;-2.40;99.90;;;;;;4928177;29;20095;-74
2020/12/26 07:13:56;;;;;;;3.83;2.85;;;-2.50;99.90;;;;;;4921695;29;20546;-75
2020/12/26 07:16:47;;;;;;;5.40;2.85;;;-2.50;99.90;;;;;;4933706;29;20032;-75
2020/12/26 07:19:21;;;;;;;5.13;3.25;;;-2.50;99.90;;;;;;4932477;29;20062;-75
2020/12/26 07:21:58;;;;;;;10.25;4.60;;;-2.50;99.90;;;;;;4928128;29;20383;-74
2020/12/26 07:24:31;;;;;;;11.77;5.72;;;-2.50;99.90;;;;;;4931534;29;20043;-74
2020/12/26 07:27:19;;;;;;;9.30;5.07;;;-2.40;99.90;;;;;;4931715;29;20114;-75
2020/12/26 07:29:51;;;;;;;9.43;4.32;;;-2.30;99.90;;;;;;4930458;29;20090;-75
2020/12/26 07:32:35;;;;;;;10.60;4.90;;;-2.30;99.90;;;;;;4927491;29;20521;-74
2020/12/26 07:35:06;;;;;;;8.98;5.30;;;-2.20;99.90;;;;;;4919654;29;20084;-75
2020/12/26 07:37:32;;;;;;;7.60;4.53;;;-2.10;99.90;;;;;;4918927;29;20031;-75
2020/12/26 07:39:57;;;;;;;7.68;3.95;;;-1.90;99.90;;;;;;4930654;29;20036;-75
2020/12/26 07:42:25;;;;;;;10.50;3.92;;;-1.90;99.90;;;;;;4922720;29;20513;-75
2020/12/26 07:44:51;;;;;;;6.05;3.55;;;-1.80;99.90;;;;;;4932909;29;20047;-75
2020/12/26 07:47:17;;;;;;;8.10;3.40;;;-1.80;99.90;;;;;;4933042;29;20071;-75
2020/12/26 07:49:42;;;;;;;7.47;3.67;;;-1.70;99.90;;;;;;4913485;29;20099;-75
2020/12/26 07:52:09;;;;;;;5.38;3.00;;;-1.70;99.90;;;;;;4927613;29;20036;-75
2020/12/26 07:54:36;;;;;;;6.63;3.13;;;-1.50;99.90;;;;;;4932842;29;20433;-75
2020/12/26 07:57:02;;;;;;;5.55;3.05;;;-1.50;99.90;;;;;;4932826;29;20083;-75
2020/12/26 07:59:28;;;;;;;7.47;3.20;;;-1.50;99.90;;;;;;4931871;29;20521;-75
2020/12/26 08:01:57;;;;;;;7.32;3.20;;;-1.40;99.90;;;;;;4929822;29;20059;-75
2020/12/26 08:04:23;;;;;;;7.20;3.42;;;-1.30;99.90;;;;;;4930145;29;20032;-75
2020/12/26 08:06:50;;;;;;;5.03;3.15;;;-1.30;99.90;;;;;;4930166;29;20042;-75
2020/12/26 08:09:17;;;;;;;7.38;3.33;;;-1.30;99.90;;;;;;4926243;29;20031;-75
2020/12/26 08:11:44;;;;;;;5.70;3.05;;;-1.20;99.90;;;;;;4930989;29;20019;-75
2020/12/26 08:14:11;;;;;;;10.80;3.97;;;-1.10;99.90;;;;;;4931934;29;20084;-75
2020/12/26 08:16:37;;;;;;;5.38;2.92;;;-0.90;99.90;;;;;;4932387;29;20132;-74
2020/12/26 08:19:04;;;;;;;13.57;3.05;;;-1.00;99.90;;;;;;4931642;29;20114;-75
2020/12/26 08:21:31;;;;;;;5.97;3.55;;;-1.00;99.90;;;;;;4929471;29;20059;-75
2020/12/26 08:24:02;;;;;;;6.50;3.53;;;-0.90;99.90;;;;;;4929424;29;20039;-75
2020/12/26 08:26:32;;;;;;;6.43;3.88;;;-0.90;99.90;;;;;;4931169;29;20730;-75
2020/12/26 08:29:03;;;;;;;11.32;3.70;;;-0.90;99.90;;;;;;4928418;29;20122;-75
2020/12/26 08:31:31;;;;;;;8.68;2.83;;;-1.00;99.90;;;;;;4925511;29;20023;-75
2020/12/26 08:34:22;;;;;;;8.18;3.53;;;-1.00;99.90;;;;;;4921354;29;20028;-75
2020/12/26 08:36:56;;;;;;;6.03;3.30;;;-1.00;99.90;;;;;;4915842;29;20044;-75
2020/12/26 08:39:24;;;;;;;6.15;3.42;;;-0.90;99.90;;;;;;4924497;29;20486;-74
2020/12/26 08:41:53;;;;;;;5.68;2.88;;;-0.90;99.90;;;;;;4924990;29;20055;-75
2020/12/26 08:44:19;;;;;;;7.80;3.97;;;-0.90;99.90;;;;;;4926097;29;20044;-75
2020/12/26 08:46:49;;;;;;;7.05;3.20;;;-0.90;99.90;;;;;;4927488;29;20043;-75
2020/12/26 08:49:15;;;;;;;6.90;2.90;;;-0.80;99.90;;;;;;4925557;29;20051;-74
2020/12/26 08:51:43;;;;;;;5.55;3.47;;;-0.70;99.90;;;;;;4927514;29;20046;-74
2020/12/26 08:54:22;;;;;;;5.15;3.00;;;-0.70;99.90;;;;;;4925626;29;20087;-74
2020/12/26 08:56:49;;;;;;;5.70;2.67;;;-0.50;99.90;;;;;;4933666;29;20095;-74
2020/12/26 08:59:26;;;;;;;7.03;3.20;;;-0.50;99.90;;;;;;4931388;29;20039;-74
2020/12/26 09:01:55;;;;;;;6.90;3.45;;;-0.40;99.90;;;;;;4930900;29;20031;-74
2020/12/26 09:04:22;;;;;;;5.70;3.20;;;-0.30;99.90;;;;;;4936682;29;20490;-74
2020/12/26 09:06:47;;;;;;;4.57;2.90;;;-0.20;99.90;;;;;;4934276;29;20032;-74
2020/12/26 09:09:25;;;;;;;6.20;3.40;;;-0.20;99.90;;;;;;4928390;29;20094;-75
2020/12/26 09:12:01;;;;;;;8.07;4.25;;;-0.10;99.90;;;;;;4926301;29;20161;-75
2020/12/26 09:14:26;;;;;;;6.15;3.65;;;-0.10;99.90;;;;;;4921940;29;20033;-75
2020/12/26 09:17:00;;;;;;;8.68;4.57;;;-0.10;99.90;;;;;;4917637;29;20394;-75
2020/12/26 09:19:26;;;;;;;8.82;3.55;;;0.00;99.90;;;;;;4929259;29;20063;-75
2020/12/26 09:22:06;;;;;;;8.52;3.78;;;-0.10;99.90;;;;;;4924465;29;20734;-75
2020/12/26 09:24:31;;;;;;;5.25;3.13;;;-0.10;99.90;;;;;;4919453;29;20067;-75
2020/12/26 09:26:57;;;;;;;6.82;3.97;;;-0.10;99.90;;;;;;4934688;29;20422;-75
2020/12/26 09:29:24;;;;;;;8.10;4.00;;;-0.10;99.90;;;;;;4931624;29;20039;-75
2020/12/26 09:31:51;;;;;;;6.35;3.65;;;-0.10;99.90;;;;;;4931335;29;20023;-75
2020/12/26 09:34:22;;;;;;;7.50;4.00;;;-0.20;99.90;;;;;;4926998;29;20067;-75
2020/12/26 09:37:05;;;;;;;7.55;3.67;;;-0.20;99.90;;;;;;4930651;29;20032;-75
2020/12/26 09:39:30;;;;;;;7.75;3.60;;;-0.20;99.90;;;;;;4913104;29;20505;-75
2020/12/26 09:41:57;;;;;;;8.23;3.70;;;-0.20;99.90;;;;;;4926922;29;20122;-75
2020/12/26 09:44:22;;;;;;;8.02;4.47;;;-0.10;99.90;;;;;;4927530;29;20037;-75
2020/12/26 09:47:03;;;;;;;8.27;4.38;;;-0.10;99.90;;;;;;4926142;29;20115;-76
2020/12/26 09:49:29;;;;;;;7.40;4.57;;;-0.10;99.90;;;;;;4923308;29;20024;-75
2020/12/26 09:51:54;;;;;;;10.38;4.47;;;0.00;99.90;;;;;;4927016;29;20110;-75
2020/12/26 09:54:20;;;;;;;9.35;3.88;;;0.00;99.90;;;;;;4930033;29;20119;-75
2020/12/26 09:56:46;;;;;;;7.97;4.43;;;0.10;99.90;;;;;;4925184;29;20035;-75
2020/12/26 09:59:12;;;;;;;7.40;4.47;;;0.10;99.90;;;;;;4933882;29;20038;-75
2020/12/26 10:01:39;;;;;;;8.98;4.13;;;0.10;99.90;;;;;;4929719;29;20034;-75
2020/12/26 10:04:05;;;;;;;8.93;3.72;;;0.10;99.90;;;;;;4926312;29;20043;-75
2020/12/26 10:06:31;;;;;;;7.72;4.05;;;0.10;99.90;;;;;;4929307;29;20032;-75
2020/12/26 10:08:56;;;;;;;8.18;3.90;;;0.10;99.90;;;;;;4928517;29;20545;-75
2020/12/26 10:11:22;;;;;;;9.35;5.18;;;0.20;99.90;;;;;;4928084;29;20126;-75
2020/12/26 10:13:48;;;;;;;9.40;4.95;;;0.20;99.90;;;;;;4927568;29;20085;-76
2020/12/26 10:16:19;;;;;;;10.52;4.85;;;0.30;99.90;;;;;;4930650;29;20039;-75
2020/12/26 10:18:45;;;;;;;10.60;4.78;;;0.20;99.90;;;;;;4944854;29;20035;-75
2020/12/26 10:21:17;;;;;;;11.10;5.13;;;0.30;99.90;;;;;;4927107;29;20118;-75
2020/12/26 10:23:46;;;;;;;5.75;3.60;;;0.30;99.90;;;;;;4923664;29;20035;-75
2020/12/26 10:26:12;;;;;;;9.27;3.92;;;0.20;99.90;;;;;;4929016;29;20059;-75
2020/12/26 10:28:38;;;;;;;7.60;4.00;;;0.20;99.90;;;;;;4928743;29;20149;-75
2020/12/26 10:31:04;;;;;;;7.47;3.88;;;0.30;99.90;;;;;;4922313;29;20036;-75
2020/12/26 10:33:30;;;;;;;7.35;3.95;;;0.30;99.90;;;;;;4931362;29;20031;-75
2020/12/26 10:35:56;;;;;;;8.93;4.72;;;0.30;99.90;;;;;;4933899;29;20035;-75
2020/12/26 10:38:22;;;;;;;8.32;3.83;;;0.40;99.90;;;;;;4932441;29;20020;-75
2020/12/26 10:40:48;;;;;;;8.50;4.32;;;0.50;99.90;;;;;;4931834;29;20047;-75
2020/12/26 10:43:15;;;;;;;10.63;4.40;;;0.40;99.90;;;;;;4930953;29;20627;-76
2020/12/26 10:45:41;;;;;;;10.80;4.45;;;0.40;99.90;;;;;;4934079;29;20166;-75
2020/12/26 10:48:06;;;;;;;9.02;4.32;;;0.60;99.90;;;;;;4934242;29;20074;-75
2020/12/26 10:50:32;;;;;;;8.02;4.15;;;0.60;99.90;;;;;;4929381;29;20126;-75
2020/12/26 10:52:57;;;;;;;8.15;4.60;;;0.50;99.90;;;;;;4917209;29;20415;-75
2020/12/26 10:55:24;;;;;;;12.13;4.90;;;0.40;99.90;;;;;;4932494;29;20043;-75
2020/12/26 10:57:52;;;;;;;9.25;4.82;;;0.50;99.90;;;;;;4933822;29;20451;-75
2020/12/26 11:00:18;;;;;;;8.20;3.88;;;0.40;99.90;;;;;;4930362;29;20039;-75
2020/12/26 11:02:44;;;;;;;8.68;4.32;;;0.40;99.90;;;;;;4931009;29;20031;-75
2020/12/26 11:05:10;;;;;;;7.93;3.88;;;0.40;99.90;;;;;;4933537;29;20043;-75
2020/12/26 11:07:36;;;;;;;7.85;5.25;;;0.50;99.90;;;;;;4933692;29;20039;-75
2020/12/26 11:10:02;;;;;;;8.82;4.20;;;0.50;99.90;;;;;;4930881;29;20394;-74
2020/12/26 11:12:28;;;;;;;9.45;5.00;;;0.50;99.90;;;;;;4925681;29;20183;-75
2020/12/26 11:14:53;;;;;;;9.32;4.30;;;0.40;99.90;;;;;;4933694;29;20537;-75
2020/12/26 11:17:19;;;;;;;9.90;4.25;;;0.50;99.90;;;;;;4932460;29;20160;-75
2020/12/26 11:19:45;;;;;;;8.30;3.92;;;0.50;99.90;;;;;;4927125;29;20047;-75
2020/12/26 11:22:11;;;;;;;8.82;4.85;;;0.50;99.90;;;;;;4930839;29;20059;-75
2020/12/26 11:24:36;;;;;;;10.50;4.85;;;0.50;99.90;;;;;;4933497;29;20035;-75
2020/12/26 11:27:02;;;;;;;8.93;4.82;;;0.50;99.90;;;;;;4932008;29;20040;-75
2020/12/26 11:29:29;;;;;;;8.93;4.60;;;0.60;99.90;;;;;;4931281;29;20051;-74
2020/12/26 11:31:57;;;;;;;9.98;5.25;;;0.60;99.90;;;;;;4926071;29;20079;-74
2020/12/26 11:34:23;;;;;;;9.63;4.57;;;0.60;99.90;;;;;;4920251;29;20047;-75
2020/12/26 11:36:49;;;;;;;9.95;5.25;;;0.70;99.90;;;;;;4933209;29;20024;-75
2020/12/26 11:39:14;;;;;;;9.75;5.03;;;0.70;99.90;;;;;;4930721;29;20118;-75
2020/12/26 11:41:40;;;;;;;9.55;5.20;;;0.80;99.90;;;;;;4927816;29;20036;-75
2020/12/26 11:44:06;;;;;;;12.63;5.30;;;0.70;99.90;;;;;;4932714;29;20032;-75
2020/12/26 11:46:31;;;;;;;7.38;4.20;;;0.70;99.90;;;;;;4933335;29;20538;-75
2020/12/26 11:48:57;;;;;;;7.65;4.88;;;0.70;99.90;;;;;;4980671;23;20453;-81
2020/12/26 11:51:23;;;;;;;10.55;5.25;;;0.70;99.90;;;;;;4973813;28;20031;-80
2020/12/26 11:53:49;;;;;;;15.60;5.78;;;0.70;99.90;;;;;;4964086;28;20023;-81
2020/12/26 11:56:16;;;;;;;9.23;5.07;;;0.70;99.90;;;;;;4961181;28;20031;-82
2020/12/26 11:58:43;;;;;;;10.90;5.57;;;0.70;99.90;;;;;;4962250;28;20344;-82
2020/12/26 12:01:09;;;;;;;9.20;5.07;;;0.80;99.90;;;;;;4954106;28;20023;-82
2020/12/26 12:03:36;;;;;;;15.18;6.07;;;0.80;99.90;;;;;;4925230;29;20023;-82
2020/12/26 12:06:03;;;;;;;12.43;5.75;;;0.80;99.90;;;;;;4938844;28;20074;-82
2020/12/26 12:08:29;;;;;;;11.75;5.85;;;0.80;99.90;;;;;;4939108;29;20059;-81
2020/12/26 12:10:55;;;;;;;12.65;5.53;;;0.90;99.90;;;;;;4959194;28;20031;-81
2020/12/26 12:13:21;;;;;;;10.73;5.57;;;0.80;99.90;;;;;;4955836;28;20538;-81
2020/12/26 12:15:47;;;;;;;12.60;6.03;;;0.80;99.90;;;;;;4958998;28;20123;-82
2020/12/26 12:18:13;;;;;;;11.32;5.22;;;0.80;99.90;;;;;;4962944;28;20126;-82
2020/12/26 12:20:39;;;;;;;13.75;6.28;;;0.80;99.90;;;;;;4942848;28;20114;-82
2020/12/26 12:23:05;;;;;;;12.05;5.93;;;0.80;99.90;;;;;;4958410;28;20054;-82
2020/12/26 12:25:31;;;;;;;12.20;6.43;;;0.90;99.90;;;;;;4961776;28;20035;-82
2020/12/26 12:27:58;;;;;;;10.70;5.35;;;0.90;99.90;;;;;;4956375;28;20043;-83
2020/12/26 12:30:25;;;;;;;12.43;5.47;;;0.90;99.90;;;;;;4945024;28;20054;-82
2020/12/26 12:32:51;;;;;;;15.82;6.80;;;0.90;99.90;;;;;;4936293;29;20550;-81
2020/12/26 12:35:17;;;;;;;15.63;6.63;;;0.90;99.90;;;;;;4956753;28;20066;-82
2020/12/26 12:37:48;;;;;;;10.50;5.47;;;0.90;99.90;;;;;;4957023;28;20027;-82
2020/12/26 12:40:14;;;;;;;19.42;7.57;;;0.90;99.90;;;;;;4937353;29;20103;-82
2020/12/26 12:42:40;;;;;;;16.70;6.20;;;0.80;99.90;;;;;;4942228;29;20127;-82
2020/12/26 12:45:06;;;;;;;14.35;6.70;;;0.80;99.90;;;;;;4924920;29;20063;-85
2020/12/26 12:47:32;;;;;;;12.07;5.50;;;0.80;99.90;;;;;;4936701;29;20046;-82
2020/12/26 12:49:57;;;;;;;11.15;6.15;;;0.90;99.90;;;;;;4947461;29;20031;-83
2020/12/26 12:52:23;;;;;;;15.32;6.78;;;0.80;99.90;;;;;;4928475;29;20036;-82
2020/12/26 12:54:49;;;;;;;14.23;6.05;;;0.90;99.90;;;;;;4955845;28;20027;-81
2020/12/26 12:57:15;;;;;;;14.63;6.20;;;0.90;99.90;;;;;;4938942;29;20047;-82